createdAt,value
2022-11-26T00:00:28.960Z,44.26
2022-11-26T00:01:01.186Z,44.57
2022-11-26T00:01:33.435Z,44.38
2022-11-26T00:02:18.917Z,44.36
2022-11-26T00:02:51.481Z,44.31
2022-11-26T00:03:24.208Z,44.35
2022-11-26T00:04:03.231Z,44.58
2022-11-26T00:04:35.630Z,44.60
2022-11-26T00:05:13.428Z,44.43
2022-11-26T00:05:50.212Z,44.49
2022-11-26T00:06:27.586Z,44.70
2022-11-26T00:06:59.800Z,44.39
2022-11-26T00:07:36.004Z,44.59
2022-11-26T00:08:16.707Z,44.51
2022-11-26T00:08:51.551Z,44.32
2022-11-26T00:09:25.301Z,44.61
2022-11-26T00:09:58.725Z,44.53
2022-11-26T00:10:38.855Z,44.55
2022-11-26T00:11:14.444Z,44.66
2022-11-26T00:11:46.653Z,44.80
2022-11-26T00:12:26.007Z,44.80
2022-11-26T00:12:58.368Z,44.79
2022-11-26T00:13:31.520Z,44.66
2022-11-26T00:14:06.487Z,44.60
2022-11-26T00:14:39.006Z,44.75
2022-11-26T00:15:16.321Z,44.63
2022-11-26T00:15:51.846Z,44.47
2022-11-26T00:16:24.107Z,44.59
2022-11-26T00:16:58.989Z,44.85
2022-11-26T00:17:31.284Z,44.88
2022-11-26T00:18:03.636Z,44.64
2022-11-26T00:18:38.444Z,44.81
2022-11-26T00:19:10.792Z,44.46
2022-11-26T00:19:44.003Z,44.60
2022-11-26T00:20:22.279Z,44.75
2022-11-26T00:20:56.354Z,44.70
2022-11-26T00:21:28.697Z,44.55
2022-11-26T00:22:03.513Z,44.56
2022-11-26T00:22:38.900Z,44.92
2022-11-26T00:23:21.832Z,44.60
2022-11-26T00:23:54.846Z,44.83
2022-11-26T00:24:28.211Z,44.81
2022-11-26T00:25:03.056Z,44.75
2022-11-26T00:25:39.567Z,44.70
2022-11-26T00:26:15.201Z,44.94
2022-11-26T00:26:50.019Z,44.51
2022-11-26T00:27:24.092Z,44.67
2022-11-26T00:27:57.872Z,45.01
2022-11-26T00:28:34.604Z,44.75
2022-11-26T00:29:08.611Z,44.73
2022-11-26T00:29:40.852Z,44.60
2022-11-26T00:30:21.865Z,44.68
2022-11-26T00:30:56.317Z,44.65
2022-11-26T00:31:29.837Z,44.87
2022-11-26T00:32:04.791Z,44.69
2022-11-26T00:32:37.083Z,44.58
2022-11-26T00:33:09.316Z,44.66
2022-11-26T00:33:44.380Z,44.89
2022-11-26T00:34:16.605Z,44.83
2022-11-26T00:34:48.925Z,44.96
2022-11-26T00:35:26.631Z,44.77
2022-11-26T00:36:01.679Z,45.03
2022-11-26T00:36:34.131Z,45.04
2022-11-26T00:37:08.944Z,45.06
2022-11-26T00:37:43.701Z,45.21
2022-11-26T00:38:17.953Z,45.13
2022-11-26T00:38:56.063Z,45.13
2022-11-26T00:39:28.319Z,45.14
2022-11-26T00:40:00.584Z,45.18
2022-11-26T00:40:36.591Z,44.73
2022-11-26T00:41:18.248Z,44.84
2022-11-26T00:41:54.385Z,45.09
2022-11-26T00:42:26.635Z,45.21
2022-11-26T00:43:01.867Z,45.18
2022-11-26T00:43:37.008Z,45.07
2022-11-26T00:44:17.590Z,44.72
2022-11-26T00:44:49.817Z,45.21
2022-11-26T00:45:26.194Z,44.83
2022-11-26T00:45:58.830Z,44.84
2022-11-26T00:46:31.149Z,45.19
2022-11-26T00:47:06.117Z,44.78
2022-11-26T00:47:38.321Z,44.79
2022-11-26T00:48:10.569Z,45.21
2022-11-26T00:48:42.819Z,44.92
2022-11-26T00:49:17.907Z,44.96
2022-11-26T00:49:50.261Z,45.07
2022-11-26T00:50:27.332Z,45.12
2022-11-26T00:51:02.179Z,44.75
2022-11-26T00:51:34.588Z,44.99
2022-11-26T00:52:20.731Z,45.11
2022-11-26T00:52:58.164Z,45.01
2022-11-26T00:53:30.429Z,44.92
2022-11-26T00:54:04.423Z,45.30
2022-11-26T00:54:39.471Z,45.00
2022-11-26T00:55:18.307Z,44.96
2022-11-26T00:55:50.723Z,45.23
2022-11-26T00:56:25.981Z,45.08
2022-11-26T00:56:58.205Z,44.81
2022-11-26T00:57:30.415Z,44.81
2022-11-26T00:58:05.368Z,45.23
2022-11-26T00:58:37.588Z,45.09
2022-11-26T00:59:12.823Z,45.26
2022-11-26T00:59:47.616Z,45.23
2022-11-26T01:00:22.760Z,44.69
2022-11-26T01:00:57.328Z,45.13
2022-11-26T01:01:33.038Z,44.79
2022-11-26T01:02:05.438Z,44.81
2022-11-26T01:02:37.758Z,45.04
2022-11-26T01:03:12.654Z,45.03
2022-11-26T01:03:45.156Z,45.05
2022-11-26T01:04:17.407Z,45.23
2022-11-26T01:04:52.269Z,44.78
2022-11-26T01:05:30.718Z,44.91
2022-11-26T01:06:05.535Z,45.04
2022-11-26T01:06:39.844Z,44.72
2022-11-26T01:07:12.134Z,45.04
2022-11-26T01:07:48.004Z,44.75
2022-11-26T01:08:26.929Z,44.85
2022-11-26T01:08:59.462Z,45.18
2022-11-26T01:09:34.319Z,45.01
2022-11-26T01:10:10.706Z,45.04
2022-11-26T01:10:42.992Z,44.67
2022-11-26T01:11:19.336Z,44.64
2022-11-26T01:11:54.483Z,44.97
2022-11-26T01:12:26.950Z,44.84
2022-11-26T01:13:01.771Z,45.04
2022-11-26T01:13:34.005Z,45.13
2022-11-26T01:14:07.225Z,44.93
2022-11-26T01:14:42.041Z,44.77
2022-11-26T01:15:15.060Z,45.06
2022-11-26T01:15:50.064Z,44.86
2022-11-26T01:16:23.892Z,45.00
2022-11-26T01:16:59.902Z,45.01
2022-11-26T01:17:32.167Z,44.99
2022-11-26T01:18:11.969Z,44.84
2022-11-26T01:18:46.862Z,45.05
2022-11-26T01:19:19.132Z,44.92
2022-11-26T01:19:51.424Z,45.19
2022-11-26T01:20:31.582Z,44.83
2022-11-26T01:21:03.876Z,44.77
2022-11-26T01:21:36.255Z,44.75
2022-11-26T01:22:17.774Z,44.88
2022-11-26T01:22:50.908Z,44.81
2022-11-26T01:23:25.734Z,44.75
2022-11-26T01:23:58.100Z,45.14
2022-11-26T01:24:30.305Z,44.77
2022-11-26T01:25:05.117Z,44.77
2022-11-26T01:25:37.328Z,45.06
2022-11-26T01:26:18.229Z,44.96
2022-11-26T01:26:50.531Z,44.79
2022-11-26T01:27:22.768Z,45.17
2022-11-26T01:27:55.201Z,45.03
2022-11-26T01:28:30.060Z,44.86
2022-11-26T01:29:02.281Z,44.99
2022-11-26T01:29:34.483Z,45.07
2022-11-26T01:30:16.962Z,44.99
2022-11-26T01:30:49.275Z,45.02
2022-11-26T01:31:23.449Z,45.00
2022-11-26T01:31:58.351Z,45.14
2022-11-26T01:32:30.617Z,45.18
2022-11-26T01:33:05.457Z,45.13
2022-11-26T01:33:37.656Z,45.25
2022-11-26T01:34:09.916Z,45.04
2022-11-26T01:34:44.793Z,45.27
2022-11-26T01:35:17.749Z,44.79
2022-11-26T01:35:52.598Z,44.91
2022-11-26T01:36:30.700Z,44.75
2022-11-26T01:37:02.926Z,45.12
2022-11-26T01:37:35.187Z,45.20
2022-11-26T01:38:12.144Z,44.79
2022-11-26T01:38:44.391Z,45.25
2022-11-26T01:39:18.303Z,45.23
2022-11-26T01:39:53.175Z,44.87
2022-11-26T01:40:50.054Z,45.10
2022-11-26T01:41:34.625Z,44.96
2022-11-26T01:42:14.403Z,45.22
2022-11-26T01:42:50.141Z,45.02
2022-11-26T01:43:28.537Z,45.12
2022-11-26T01:44:01.247Z,45.01
2022-11-26T01:44:38.525Z,45.01
2022-11-26T01:45:15.692Z,45.21
2022-11-26T01:45:48.045Z,45.33
2022-11-26T01:46:26.440Z,45.24
2022-11-26T01:46:59.855Z,45.07
2022-11-26T01:47:32.061Z,44.99
2022-11-26T01:48:22.227Z,45.10
2022-11-26T01:48:55.757Z,45.02
2022-11-26T01:49:29.807Z,45.10
2022-11-26T01:50:34.599Z,45.16
2022-11-26T01:51:13.864Z,45.02
2022-11-26T01:51:46.881Z,45.36
2022-11-26T01:52:21.817Z,44.99
2022-11-26T01:52:54.779Z,45.06
2022-11-26T01:53:36.284Z,45.49
2022-11-26T01:54:08.529Z,45.25
2022-11-26T01:54:45.691Z,45.13
2022-11-26T01:55:18.312Z,45.47
2022-11-26T01:55:54.851Z,45.35
2022-11-26T01:56:34.171Z,45.20
2022-11-26T01:57:08.608Z,45.40
2022-11-26T01:57:40.950Z,45.23
2022-11-26T01:58:16.437Z,45.32
2022-11-26T01:58:54.010Z,45.18
2022-11-26T01:59:29.031Z,45.23
2022-11-26T02:00:01.607Z,45.45
2022-11-26T02:00:36.569Z,44.97
2022-11-26T02:01:09.174Z,44.96
2022-11-26T02:01:44.190Z,45.01
2022-11-26T02:02:16.666Z,45.42
2022-11-26T02:02:48.946Z,45.35
2022-11-26T02:03:21.317Z,45.06
2022-11-26T02:04:01.075Z,45.10
2022-11-26T02:04:38.668Z,45.41
2022-11-26T02:05:15.321Z,45.23
2022-11-26T02:05:55.033Z,45.04
2022-11-26T02:06:32.609Z,44.99
2022-11-26T02:07:07.543Z,44.90
2022-11-26T02:07:39.945Z,45.12
2022-11-26T02:08:12.736Z,45.10
2022-11-26T02:08:47.828Z,44.91
2022-11-26T02:09:20.143Z,45.11
2022-11-26T02:09:52.413Z,44.88
2022-11-26T02:10:27.233Z,44.87
2022-11-26T02:10:59.446Z,45.04
2022-11-26T02:11:33.221Z,45.38
2022-11-26T02:12:08.301Z,45.30
2022-11-26T02:12:41.131Z,44.89
2022-11-26T02:13:13.358Z,44.89
2022-11-26T02:13:49.985Z,44.91
2022-11-26T02:14:24.335Z,44.82
2022-11-26T02:14:56.579Z,44.93
2022-11-26T02:15:35.059Z,44.90
2022-11-26T02:16:12.402Z,44.90
2022-11-26T02:17:00.582Z,45.04
2022-11-26T02:17:36.227Z,45.22
2022-11-26T02:18:09.653Z,45.01
2022-11-26T02:18:47.954Z,45.18
2022-11-26T02:19:45.905Z,44.99
2022-11-26T02:20:30.839Z,45.04
2022-11-26T02:21:06.654Z,45.16
2022-11-26T02:21:48.083Z,45.19
2022-11-26T02:22:39.656Z,44.97
2022-11-26T02:23:41.625Z,44.67
2022-11-26T02:24:28.448Z,44.71
2022-11-26T02:25:06.144Z,44.80
2022-11-26T02:25:56.917Z,45.10
2022-11-26T02:27:03.189Z,45.11
2022-11-26T02:28:07.240Z,44.91
2022-11-26T02:29:14.667Z,45.18
2022-11-26T02:30:01.209Z,45.11
2022-11-26T02:30:39.679Z,45.06
2022-11-26T02:31:13.406Z,44.70
2022-11-26T02:31:48.224Z,44.89
2022-11-26T02:32:25.649Z,44.76
2022-11-26T02:33:01.953Z,44.70
2022-11-26T02:33:38.608Z,44.99
2022-11-26T02:34:18.393Z,44.79
2022-11-26T02:34:55.922Z,44.80
2022-11-26T02:35:36.565Z,44.63
2022-11-26T02:36:13.808Z,44.63
2022-11-26T02:36:50.221Z,44.89
2022-11-26T02:37:29.485Z,44.71
2022-11-26T02:38:04.969Z,44.85
2022-11-26T02:38:38.743Z,44.91
2022-11-26T02:39:14.967Z,44.67
2022-11-26T02:39:47.690Z,45.06
2022-11-26T02:40:20.108Z,44.67
2022-11-26T02:40:55.301Z,44.67
2022-11-26T02:41:34.047Z,45.08
2022-11-26T02:42:24.076Z,44.95
2022-11-26T02:42:59.036Z,44.83
2022-11-26T02:43:31.683Z,44.86
2022-11-26T02:44:03.947Z,45.13
2022-11-26T02:44:44.681Z,45.08
2022-11-26T02:45:22.729Z,45.13
2022-11-26T02:45:56.936Z,45.04
2022-11-26T02:46:31.833Z,44.92
2022-11-26T02:47:06.958Z,45.13
2022-11-26T02:47:41.075Z,44.92
2022-11-26T02:48:18.084Z,44.96
2022-11-26T02:48:51.784Z,44.84
2022-11-26T02:49:24.245Z,44.82
2022-11-26T02:49:57.833Z,45.04
2022-11-26T02:50:35.549Z,44.78
2022-11-26T02:51:10.869Z,44.70
2022-11-26T02:51:43.392Z,44.89
2022-11-26T02:52:19.214Z,44.81
2022-11-26T02:52:53.256Z,45.27
2022-11-26T02:53:27.431Z,44.91
2022-11-26T02:54:02.634Z,45.28
2022-11-26T02:54:35.631Z,45.11
2022-11-26T02:55:09.744Z,44.88
2022-11-26T02:55:47.852Z,45.05
2022-11-26T02:56:21.841Z,45.08
2022-11-26T02:56:55.112Z,45.13
2022-11-26T02:57:32.324Z,44.93
2022-11-26T02:58:04.746Z,45.37
2022-11-26T02:58:37.368Z,45.01
2022-11-26T02:59:13.017Z,44.92
2022-11-26T02:59:45.403Z,45.28
2022-11-26T03:00:21.036Z,44.94
2022-11-26T03:00:57.443Z,45.25
2022-11-26T03:01:32.527Z,45.29
2022-11-26T03:02:08.697Z,45.13
2022-11-26T03:02:46.653Z,45.33
2022-11-26T03:03:24.129Z,45.21
2022-11-26T03:03:58.573Z,45.28
2022-11-26T03:04:36.728Z,45.06
2022-11-26T03:05:09.384Z,45.24
2022-11-26T03:05:42.600Z,45.30
2022-11-26T03:06:18.341Z,44.97
2022-11-26T03:06:51.091Z,45.29
2022-11-26T03:07:23.503Z,45.46
2022-11-26T03:07:58.474Z,45.13
2022-11-26T03:08:32.101Z,45.31
2022-11-26T03:09:07.495Z,45.35
2022-11-26T03:09:41.257Z,45.29
2022-11-26T03:10:13.786Z,45.16
2022-11-26T03:10:48.613Z,45.36
2022-11-26T03:11:21.402Z,45.51
2022-11-26T03:11:53.783Z,45.49
2022-11-26T03:12:28.907Z,45.06
2022-11-26T03:13:01.123Z,45.42
2022-11-26T03:13:33.419Z,45.28
2022-11-26T03:14:08.246Z,45.34
2022-11-26T03:14:40.853Z,45.06
2022-11-26T03:15:13.209Z,45.40
2022-11-26T03:15:50.621Z,44.99
2022-11-26T03:16:22.971Z,45.12
2022-11-26T03:16:55.321Z,45.15
2022-11-26T03:17:30.194Z,45.35
2022-11-26T03:18:02.408Z,45.34
2022-11-26T03:18:34.630Z,45.25
2022-11-26T03:19:09.535Z,45.24
2022-11-26T03:19:42.028Z,45.03
2022-11-26T03:20:14.421Z,45.31
2022-11-26T03:20:52.205Z,44.97
2022-11-26T03:21:24.847Z,45.18
2022-11-26T03:21:57.060Z,44.91
2022-11-26T03:22:31.902Z,45.06
2022-11-26T03:23:04.125Z,45.28
2022-11-26T03:23:36.351Z,44.94
2022-11-26T03:24:11.400Z,45.13
2022-11-26T03:24:43.778Z,44.92
2022-11-26T03:25:16.303Z,45.10
2022-11-26T03:25:51.167Z,45.24
2022-11-26T03:26:23.465Z,45.34
2022-11-26T03:26:55.715Z,45.32
2022-11-26T03:27:27.933Z,45.06
2022-11-26T03:28:02.746Z,45.01
2022-11-26T03:28:35.003Z,45.07
2022-11-26T03:29:07.203Z,45.29
2022-11-26T03:29:42.051Z,44.91
2022-11-26T03:30:14.753Z,45.08
2022-11-26T03:30:52.344Z,45.44
2022-11-26T03:31:24.596Z,46.19
2022-11-26T03:31:57.084Z,46.23
2022-11-26T03:32:31.956Z,45.93
2022-11-26T03:33:04.374Z,46.04
2022-11-26T03:33:36.600Z,45.87
2022-11-26T03:34:08.811Z,45.43
2022-11-26T03:34:43.724Z,45.35
2022-11-26T03:35:16.037Z,45.03
2022-11-26T03:35:48.990Z,45.02
2022-11-26T03:36:23.827Z,44.38
2022-11-26T03:36:56.108Z,44.27
2022-11-26T03:37:28.500Z,44.06
2022-11-26T03:38:03.342Z,44.46
2022-11-26T03:38:35.547Z,43.94
2022-11-26T03:39:07.932Z,44.24
2022-11-26T03:39:40.424Z,43.57
2022-11-26T03:40:16.864Z,43.59
2022-11-26T03:40:56.578Z,43.42
2022-11-26T03:41:28.854Z,43.46
2022-11-26T03:42:03.723Z,43.62
2022-11-26T03:42:36.007Z,43.47
2022-11-26T03:43:08.232Z,43.47
2022-11-26T03:43:43.053Z,43.20
2022-11-26T03:44:15.287Z,43.05
2022-11-26T03:44:47.535Z,43.21
2022-11-26T03:45:22.437Z,43.14
2022-11-26T03:45:57.332Z,43.24
2022-11-26T03:46:29.686Z,43.17
2022-11-26T03:47:04.664Z,43.11
2022-11-26T03:47:36.864Z,42.76
2022-11-26T03:48:09.077Z,42.94
2022-11-26T03:48:43.968Z,42.95
2022-11-26T03:49:16.237Z,42.84
2022-11-26T03:49:49.132Z,43.14
2022-11-26T03:50:24.099Z,42.73
2022-11-26T03:50:56.308Z,42.73
2022-11-26T03:51:28.717Z,42.79
2022-11-26T03:52:03.571Z,42.50
2022-11-26T03:52:35.783Z,42.91
2022-11-26T03:53:07.988Z,42.78
2022-11-26T03:53:43.406Z,42.93
2022-11-26T03:54:18.431Z,42.90
2022-11-26T03:54:50.700Z,42.70
2022-11-26T03:55:25.499Z,42.73
2022-11-26T03:55:57.731Z,42.87
2022-11-26T03:56:29.971Z,42.86
2022-11-26T03:57:04.843Z,42.82
2022-11-26T03:57:37.250Z,42.65
2022-11-26T03:58:09.454Z,42.42
2022-11-26T03:58:44.270Z,42.38
2022-11-26T03:59:16.499Z,42.45
2022-11-26T03:59:48.748Z,42.67
2022-11-26T04:00:24.580Z,42.45
2022-11-26T04:00:59.505Z,42.28
2022-11-26T04:01:31.860Z,42.75
2022-11-26T04:02:07.540Z,42.53
2022-11-26T04:02:39.835Z,42.65
2022-11-26T04:03:12.075Z,42.73
2022-11-26T04:03:47.113Z,42.80
2022-11-26T04:04:19.399Z,42.30
2022-11-26T04:04:51.783Z,42.60
2022-11-26T04:05:26.600Z,42.34
2022-11-26T04:05:59.877Z,42.74
2022-11-26T04:06:32.306Z,42.41
2022-11-26T04:07:07.210Z,42.34
2022-11-26T04:07:39.730Z,42.69
2022-11-26T04:08:12.089Z,42.60
2022-11-26T04:08:47.098Z,42.67
2022-11-26T04:09:19.419Z,42.36
2022-11-26T04:09:52.624Z,42.44
2022-11-26T04:10:27.649Z,42.33
2022-11-26T04:10:59.994Z,42.55
2022-11-26T04:11:32.226Z,42.36
2022-11-26T04:12:07.527Z,42.58
2022-11-26T04:12:39.784Z,42.38
2022-11-26T04:13:12.009Z,42.63
2022-11-26T04:13:46.832Z,42.92
2022-11-26T04:14:19.068Z,42.36
2022-11-26T04:14:51.455Z,42.67
2022-11-26T04:15:26.288Z,42.72
2022-11-26T04:16:01.097Z,42.45
2022-11-26T04:16:33.462Z,42.48
2022-11-26T04:17:08.364Z,42.44
2022-11-26T04:17:40.578Z,42.90
2022-11-26T04:18:12.788Z,42.41
2022-11-26T04:18:47.597Z,42.82
2022-11-26T04:19:19.861Z,42.65
2022-11-26T04:19:52.233Z,42.45
2022-11-26T04:20:27.040Z,42.70
2022-11-26T04:20:59.265Z,42.46
2022-11-26T04:21:31.479Z,42.75
2022-11-26T04:22:06.345Z,43.04
2022-11-26T04:22:38.561Z,42.73
2022-11-26T04:23:10.779Z,42.73
2022-11-26T04:23:45.607Z,42.84
2022-11-26T04:24:17.823Z,42.40
2022-11-26T04:24:50.119Z,42.63
2022-11-26T04:25:24.944Z,42.77
2022-11-26T04:25:57.496Z,42.60
2022-11-26T04:26:30.111Z,42.72
2022-11-26T04:27:05.020Z,42.59
2022-11-26T04:27:37.232Z,42.75
2022-11-26T04:28:09.711Z,42.77
2022-11-26T04:28:44.566Z,42.84
2022-11-26T04:29:16.840Z,42.51
2022-11-26T04:29:49.067Z,42.48
2022-11-26T04:30:23.908Z,42.32
2022-11-26T04:30:56.133Z,42.55
2022-11-26T04:31:31.179Z,42.50
2022-11-26T04:32:06.531Z,42.68
2022-11-26T04:32:40.061Z,42.40
2022-11-26T04:33:12.267Z,42.24
2022-11-26T04:33:47.240Z,42.75
2022-11-26T04:34:19.435Z,42.47
2022-11-26T04:34:51.657Z,42.43
2022-11-26T04:35:26.493Z,42.20
2022-11-26T04:35:58.711Z,42.50
2022-11-26T04:36:30.966Z,42.45
2022-11-26T04:37:05.800Z,42.12
2022-11-26T04:37:38.048Z,42.34
2022-11-26T04:38:10.358Z,42.32
2022-11-26T04:38:45.232Z,42.28
2022-11-26T04:39:17.443Z,42.55
2022-11-26T04:39:49.646Z,42.58
2022-11-26T04:40:24.476Z,42.53
2022-11-26T04:40:56.687Z,42.06
2022-11-26T04:41:29.006Z,42.14
2022-11-26T04:42:03.836Z,42.36
2022-11-26T04:42:36.067Z,42.56
2022-11-26T04:43:08.280Z,42.15
2022-11-26T04:43:43.130Z,42.40
2022-11-26T04:44:15.402Z,42.03
2022-11-26T04:44:47.622Z,42.04
2022-11-26T04:45:22.579Z,42.34
2022-11-26T04:45:54.940Z,42.02
2022-11-26T04:46:27.241Z,42.07
2022-11-26T04:47:04.696Z,42.09
2022-11-26T04:47:41.503Z,42.09
2022-11-26T04:48:15.143Z,42.53
2022-11-26T04:48:49.953Z,42.40
2022-11-26T04:49:22.160Z,42.33
2022-11-26T04:49:54.405Z,42.09
2022-11-26T04:50:26.679Z,42.51
2022-11-26T04:51:01.521Z,42.59
2022-11-26T04:51:33.796Z,42.46
2022-11-26T04:52:06.044Z,42.48
2022-11-26T04:52:40.907Z,42.62
2022-11-26T04:53:13.117Z,42.42
2022-11-26T04:53:45.327Z,42.45
2022-11-26T04:54:20.149Z,42.41
2022-11-26T04:54:52.379Z,42.22
2022-11-26T04:55:24.856Z,42.53
2022-11-26T04:55:59.659Z,42.24
2022-11-26T04:56:31.875Z,42.29
2022-11-26T04:57:04.277Z,42.48
2022-11-26T04:57:39.095Z,42.48
2022-11-26T04:58:11.304Z,42.29
2022-11-26T04:58:43.532Z,42.30
2022-11-26T04:59:18.408Z,42.65
2022-11-26T04:59:50.619Z,42.27
2022-11-26T05:00:22.876Z,42.66
2022-11-26T05:00:57.716Z,42.29
2022-11-26T05:01:30.078Z,42.40
2022-11-26T05:02:05.005Z,42.39
2022-11-26T05:02:39.910Z,42.45
2022-11-26T05:03:12.676Z,42.57
2022-11-26T05:03:47.529Z,42.19
2022-11-26T05:04:20.327Z,42.30
2022-11-26T05:04:52.562Z,42.50
2022-11-26T05:05:27.408Z,42.63
2022-11-26T05:05:59.700Z,42.63
2022-11-26T05:06:31.910Z,42.41
2022-11-26T05:07:07.431Z,42.29
2022-11-26T05:07:40.273Z,42.67
2022-11-26T05:08:12.589Z,42.43
2022-11-26T05:08:47.468Z,42.51
2022-11-26T05:09:19.732Z,42.25
2022-11-26T05:09:51.979Z,42.71
2022-11-26T05:10:26.801Z,42.59
2022-11-26T05:11:01.145Z,42.61
2022-11-26T05:11:36.063Z,42.41
2022-11-26T05:12:08.346Z,42.53
2022-11-26T05:12:40.552Z,42.75
2022-11-26T05:13:15.365Z,42.47
2022-11-26T05:13:47.610Z,42.62
2022-11-26T05:14:19.868Z,42.30
2022-11-26T05:14:54.740Z,42.58
2022-11-26T05:15:26.993Z,42.44
2022-11-26T05:15:59.219Z,42.48
2022-11-26T05:16:34.061Z,42.72
2022-11-26T05:17:08.975Z,42.58
2022-11-26T05:17:41.190Z,42.24
2022-11-26T05:18:16.281Z,42.72
2022-11-26T05:18:48.562Z,42.49
2022-11-26T05:19:20.838Z,42.34
2022-11-26T05:19:55.648Z,42.67
2022-11-26T05:20:27.871Z,42.60
2022-11-26T05:21:00.240Z,42.75
2022-11-26T05:21:35.266Z,42.55
2022-11-26T05:22:07.502Z,42.17
2022-11-26T05:22:39.745Z,42.43
2022-11-26T05:23:14.616Z,42.48
2022-11-26T05:23:46.843Z,42.48
2022-11-26T05:24:19.328Z,42.63
2022-11-26T05:24:54.140Z,42.65
2022-11-26T05:25:26.380Z,42.70
2022-11-26T05:25:58.589Z,42.38
2022-11-26T05:26:33.414Z,42.25
2022-11-26T05:27:05.804Z,42.72
2022-11-26T05:27:38.062Z,42.51
2022-11-26T05:28:12.979Z,42.24
2022-11-26T05:28:45.228Z,42.60
2022-11-26T05:29:17.501Z,42.43
2022-11-26T05:29:52.344Z,42.48
2022-11-26T05:30:24.576Z,42.46
2022-11-26T05:31:03.006Z,42.27
2022-11-26T05:31:35.293Z,42.69
2022-11-26T05:32:10.251Z,42.43
2022-11-26T05:32:45.206Z,42.29
2022-11-26T05:33:17.412Z,42.29
2022-11-26T05:33:49.627Z,42.50
2022-11-26T05:34:24.504Z,42.24
2022-11-26T05:35:00.029Z,42.24
2022-11-26T05:35:35.249Z,42.27
2022-11-26T05:36:08.184Z,42.60
2022-11-26T05:36:40.396Z,42.53
2022-11-26T05:37:15.209Z,42.44
2022-11-26T05:37:47.491Z,42.24
2022-11-26T05:38:19.837Z,42.63
2022-11-26T05:38:54.649Z,42.16
2022-11-26T05:39:27.057Z,42.18
2022-11-26T05:39:59.314Z,42.15
2022-11-26T05:40:34.140Z,42.64
2022-11-26T05:41:06.362Z,42.59
2022-11-26T05:41:38.604Z,42.36
2022-11-26T05:42:15.411Z,42.43
2022-11-26T05:42:47.616Z,42.22
2022-11-26T05:43:19.830Z,42.14
2022-11-26T05:43:54.714Z,42.56
2022-11-26T05:44:27.117Z,42.17
2022-11-26T05:44:59.329Z,42.33
2022-11-26T05:45:34.258Z,42.15
2022-11-26T05:46:07.734Z,42.41
2022-11-26T05:46:42.342Z,42.58
2022-11-26T05:47:19.772Z,42.30
2022-11-26T05:47:51.998Z,42.59
2022-11-26T05:48:24.212Z,42.16
2022-11-26T05:48:59.373Z,42.33
2022-11-26T05:49:31.588Z,42.07
2022-11-26T05:50:04.433Z,42.15
2022-11-26T05:50:39.360Z,42.31
2022-11-26T05:51:11.869Z,42.04
2022-11-26T05:51:44.081Z,42.07
2022-11-26T05:52:18.903Z,42.58
2022-11-26T05:52:51.135Z,42.11
2022-11-26T05:53:23.337Z,42.50
2022-11-26T05:53:58.136Z,42.33
2022-11-26T05:54:30.375Z,42.49
2022-11-26T05:55:02.636Z,42.21
2022-11-26T05:55:38.114Z,42.26
2022-11-26T05:56:10.368Z,42.51
2022-11-26T05:56:43.460Z,42.09
2022-11-26T05:57:18.361Z,42.41
2022-11-26T05:57:50.611Z,42.51
2022-11-26T05:58:22.841Z,42.09
2022-11-26T05:58:57.674Z,42.46
2022-11-26T05:59:29.954Z,42.16
2022-11-26T06:00:02.167Z,42.27
2022-11-26T06:00:46.386Z,42.15
2022-11-26T06:01:18.702Z,41.55
2022-11-26T06:01:50.936Z,41.21
2022-11-26T06:02:28.507Z,41.66
2022-11-26T06:03:00.843Z,41.53
2022-11-26T06:03:33.205Z,41.99
2022-11-26T06:04:08.369Z,41.95
2022-11-26T06:04:40.877Z,42.14
2022-11-26T06:05:13.231Z,42.28
2022-11-26T06:05:45.581Z,42.61
2022-11-26T06:06:20.401Z,42.44
2022-11-26T06:06:52.656Z,42.52
2022-11-26T06:07:24.906Z,42.79
2022-11-26T06:07:59.770Z,42.96
2022-11-26T06:08:32.372Z,43.06
2022-11-26T06:09:04.788Z,42.99
2022-11-26T06:09:37.450Z,43.35
2022-11-26T06:10:13.420Z,43.24
2022-11-26T06:10:45.643Z,43.71
2022-11-26T06:11:17.883Z,43.37
2022-11-26T06:11:53.442Z,43.49
2022-11-26T06:12:25.757Z,43.91
2022-11-26T06:13:00.596Z,43.88
2022-11-26T06:13:32.812Z,43.90
2022-11-26T06:14:05.049Z,43.73
2022-11-26T06:14:43.093Z,44.21
2022-11-26T06:15:15.871Z,44.12
2022-11-26T06:15:48.256Z,44.10
2022-11-26T06:16:23.138Z,43.88
2022-11-26T06:16:55.495Z,43.80
2022-11-26T06:17:30.836Z,43.98
2022-11-26T06:18:05.685Z,44.16
2022-11-26T06:18:38.181Z,44.09
2022-11-26T06:19:10.933Z,44.12
2022-11-26T06:19:45.732Z,44.00
2022-11-26T06:20:18.088Z,44.02
2022-11-26T06:20:50.327Z,44.05
2022-11-26T06:21:25.158Z,44.05
2022-11-26T06:21:57.408Z,44.12
2022-11-26T06:22:29.612Z,44.21
2022-11-26T06:23:04.429Z,44.46
2022-11-26T06:23:36.687Z,44.09
2022-11-26T06:24:09.167Z,44.12
2022-11-26T06:24:44.054Z,44.62
2022-11-26T06:25:16.292Z,44.50
2022-11-26T06:25:48.588Z,44.33
2022-11-26T06:26:23.389Z,44.36
2022-11-26T06:26:55.619Z,44.65
2022-11-26T06:27:27.852Z,44.30
2022-11-26T06:28:02.748Z,44.36
2022-11-26T06:28:35.061Z,44.35
2022-11-26T06:29:07.268Z,44.29
2022-11-26T06:29:42.096Z,44.36
2022-11-26T06:30:15.167Z,44.76
2022-11-26T06:30:47.448Z,44.63
2022-11-26T06:31:22.364Z,44.86
2022-11-26T06:31:54.777Z,44.86
2022-11-26T06:32:30.074Z,44.70
2022-11-26T06:33:04.910Z,44.94
2022-11-26T06:33:37.463Z,44.53
2022-11-26T06:34:09.676Z,44.50
2022-11-26T06:34:45.119Z,44.86
2022-11-26T06:35:18.968Z,44.79
2022-11-26T06:35:51.226Z,44.87
2022-11-26T06:36:26.347Z,44.79
2022-11-26T06:36:58.600Z,44.55
2022-11-26T06:37:34.856Z,44.75
2022-11-26T06:38:07.075Z,44.54
2022-11-26T06:38:41.903Z,44.96
2022-11-26T06:39:14.112Z,45.03
2022-11-26T06:39:46.576Z,45.02
2022-11-26T06:40:23.107Z,44.72
2022-11-26T06:40:59.454Z,44.77
2022-11-26T06:41:31.739Z,44.74
2022-11-26T06:42:06.936Z,44.66
2022-11-26T06:42:39.144Z,45.00
2022-11-26T06:43:11.359Z,44.86
2022-11-26T06:43:46.234Z,44.95
2022-11-26T06:44:18.450Z,44.76
2022-11-26T06:44:50.685Z,44.98
2022-11-26T06:45:26.345Z,45.04
2022-11-26T06:46:01.808Z,44.86
2022-11-26T06:46:34.660Z,45.13
2022-11-26T06:47:09.493Z,44.95
2022-11-26T06:47:46.202Z,44.92
2022-11-26T06:48:18.441Z,45.23
2022-11-26T06:48:53.242Z,45.08
2022-11-26T06:49:25.529Z,45.09
2022-11-26T06:49:57.727Z,45.18
2022-11-26T06:50:32.532Z,45.21
2022-11-26T06:51:05.449Z,45.16
2022-11-26T06:51:37.680Z,44.81
2022-11-26T06:52:12.507Z,44.96
2022-11-26T06:52:44.965Z,45.04
2022-11-26T06:53:17.203Z,45.03
2022-11-26T06:53:52.077Z,45.02
2022-11-26T06:54:24.346Z,45.04
2022-11-26T06:54:56.547Z,44.87
2022-11-26T06:55:31.353Z,44.92
2022-11-26T06:56:05.649Z,45.20
2022-11-26T06:56:38.045Z,44.88
2022-11-26T06:57:12.872Z,44.82
2022-11-26T06:57:45.160Z,45.19
2022-11-26T06:58:17.410Z,45.23
2022-11-26T06:58:55.083Z,45.12
2022-11-26T06:59:27.419Z,45.14
2022-11-26T06:59:59.640Z,44.92
2022-11-26T07:00:34.488Z,44.73
2022-11-26T07:01:10.020Z,45.08
2022-11-26T07:01:44.979Z,44.77
2022-11-26T07:02:17.320Z,45.12
2022-11-26T07:02:52.253Z,44.93
2022-11-26T07:03:32.084Z,45.13
2022-11-26T07:04:05.880Z,45.10
2022-11-26T07:04:38.403Z,45.20
2022-11-26T07:05:13.442Z,45.23
2022-11-26T07:05:45.749Z,44.79
2022-11-26T07:06:19.069Z,44.98
2022-11-26T07:06:53.948Z,44.84
2022-11-26T07:07:26.476Z,45.18
2022-11-26T07:07:58.760Z,45.06
2022-11-26T07:08:33.847Z,45.15
2022-11-26T07:09:07.811Z,44.98
2022-11-26T07:09:42.752Z,45.02
2022-11-26T07:10:15.003Z,45.01
2022-11-26T07:10:49.265Z,44.93
2022-11-26T07:11:25.390Z,44.88
2022-11-26T07:11:57.638Z,44.92
2022-11-26T07:12:29.890Z,45.18
2022-11-26T07:13:04.784Z,44.94
2022-11-26T07:13:37.081Z,45.19
2022-11-26T07:14:09.855Z,45.28
2022-11-26T07:14:45.771Z,45.25
2022-11-26T07:15:18.188Z,45.21
2022-11-26T07:15:50.450Z,44.94
2022-11-26T07:16:25.532Z,45.02
2022-11-26T07:16:57.834Z,45.26
2022-11-26T07:17:30.104Z,44.95
2022-11-26T07:18:07.540Z,45.21
2022-11-26T07:18:39.777Z,44.90
2022-11-26T07:19:14.225Z,44.93
2022-11-26T07:19:49.044Z,45.30
2022-11-26T07:20:21.412Z,45.26
2022-11-26T07:20:56.262Z,45.24
2022-11-26T07:21:28.951Z,45.36
2022-11-26T07:22:01.187Z,44.96
2022-11-26T07:22:37.296Z,45.18
2022-11-26T07:23:09.519Z,45.20
2022-11-26T07:23:42.220Z,45.04
2022-11-26T07:24:17.021Z,44.80